Time;durP1;ratioP1;P1;durP2;ratioP2;P2;SDS_P1;SDS_P2;PMS_P1;PMS_P2;Temp;Humidity;BMP_temperature;BMP_pressure;BME280_temperature;BME280_humidity;BME280_pressure;Samples;Min_cycle;Max_cycle;Signal;HPM_P1;HPM_P2
2022/01/22 00:00:40;;;;;;;3.58;2.55;;;;;;;4.54;100.00;101724.50;5986347;29;20429;-94
2022/01/22 00:03:45;;;;;;;4.43;2.65;;;;;;;4.52;100.00;101719.47;5984962;29;20084;-94
2022/01/22 00:06:51;;;;;;;4.60;2.80;;;;;;;4.54;100.00;101720.22;5996886;29;20046;-94
2022/01/22 00:10:18;;;;;;;3.08;2.03;;;;;;;4.56;100.00;101720.19;5993401;29;20057;-94
2022/01/22 00:16:58;;;;;;;5.78;2.95;;;;;;;4.56;100.00;101733.00;5995581;29;20100;-94
2022/01/22 00:20:04;;;;;;;4.93;2.70;;;;;;;4.53;100.00;101727.97;6000909;29;20046;-94
2022/01/22 00:23:07;;;;;;;5.82;2.67;;;;;;;4.50;100.00;101708.41;6002507;29;20050;-94
2022/01/22 00:26:09;;;;;;;5.65;2.65;;;;;;;4.50;100.00;101721.22;5994572;29;20114;-94
2022/01/22 00:29:13;;;;;;;5.03;2.53;;;;;;;4.47;100.00;101723.91;5998316;29;20042;-94
2022/01/22 00:32:17;;;;;;;5.75;2.88;;;;;;;4.47;100.00;101713.66;5993222;29;20685;-93
2022/01/22 00:35:21;;;;;;;7.55;2.80;;;;;;;4.47;100.00;101707.66;5999308;29;20145;-93
2022/01/22 00:38:23;;;;;;;5.22;2.40;;;;;;;4.51;100.00;101712.63;5998673;29;20051;-94
2022/01/22 00:41:26;;;;;;;5.72;2.55;;;;;;;4.57;100.00;101710.75;5997974;29;20062;-94
2022/01/22 00:44:30;;;;;;;4.70;2.65;;;;;;;4.59;100.00;101708.97;5974438;29;20054;-94
2022/01/22 00:47:33;;;;;;;4.80;2.80;;;;;;;4.58;100.00;101709.88;6000134;29;20046;-94
2022/01/22 00:50:35;;;;;;;2.97;2.22;;;;;;;4.51;100.00;101720.34;5990222;29;20054;-94
2022/01/22 00:53:37;;;;;;;4.18;2.20;;;;;;;4.51;100.00;101712.63;5988276;29;20046;-94
2022/01/22 00:56:39;;;;;;;2.75;2.17;;;;;;;4.48;100.00;101709.34;5984649;29;20050;-94
2022/01/22 00:59:42;;;;;;;3.00;2.05;;;;;;;4.52;100.00;101723.72;5981547;29;20136;-94
2022/01/22 01:02:45;;;;;;;4.05;1.90;;;;;;;4.49;100.00;101719.53;5980842;29;20434;-93
2022/01/22 01:05:47;;;;;;;3.33;2.33;;;;;;;4.46;100.00;101737.59;5984245;29;20149;-94
2022/01/22 01:08:50;;;;;;;2.50;1.67;;;;;;;4.50;100.00;101739.19;5987703;29;20042;-93
2022/01/22 01:11:57;;;;;;;3.17;2.00;;;;;;;4.50;100.00;101736.63;5979450;29;20062;-93
2022/01/22 01:35:08;;;;;;;3.67;1.67;;;;;;;4.56;100.00;101725.31;5973396;29;20501;-93
2022/01/22 01:38:11;;;;;;;2.83;1.63;;;;;;;4.53;100.00;101730.53;5997654;29;20591;-93
2022/01/22 01:41:23;;;;;;;2.38;1.60;;;;;;;4.49;100.00;101734.94;5980069;29;20776;-94
2022/01/22 01:44:27;;;;;;;4.32;1.83;;;;;;;4.47;100.00;101739.28;5988522;29;20050;-93
2022/01/22 01:47:38;;;;;;;3.28;1.40;;;;;;;4.51;100.00;101745.13;5989872;29;20097;-93
2022/01/22 01:50:41;;;;;;;4.28;1.60;;;;;;;4.58;100.00;101741.47;5975069;29;20626;-93
2022/01/22 01:54:01;;;;;;;3.35;1.80;;;;;;;4.59;100.00;101729.50;5978581;29;20050;-93
2022/01/22 02:00:27;;;;;;;3.08;1.88;;;;;;;4.56;100.00;101721.91;5985283;29;20134;-92
2022/01/22 02:03:32;;;;;;;3.67;1.50;;;;;;;4.58;100.00;101727.84;5992651;29;20062;-94
2022/01/22 02:06:52;;;;;;;2.50;1.60;;;;;;;4.53;100.00;101736.50;5984374;29;20046;-94
2022/01/22 02:09:54;;;;;;;3.75;1.90;;;;;;;4.54;100.00;101742.47;5983449;29;20050;-93
2022/01/22 02:13:39;;;;;;;3.15;2.20;;;;;;;4.48;100.00;101733.25;5977700;29;20057;-93
2022/01/22 02:23:47;;;;;;;2.63;1.90;;;;;;;4.60;100.00;101732.00;5993100;29;20042;-93
2022/01/22 02:26:50;;;;;;;4.53;1.98;;;;;;;4.58;100.00;101728.66;5988067;29;20038;-93
2022/01/22 02:30:18;;;;;;;4.95;2.15;;;;;;;4.56;100.00;101740.69;5987610;29;20058;-94
2022/01/22 02:37:29;;;;;;;4.35;2.08;;;;;;;4.61;100.00;101725.16;5993306;29;20066;-94
2022/01/22 02:40:42;;;;;;;4.50;2.50;;;;;;;4.64;100.00;101740.44;5979813;29;20046;-93
2022/01/22 02:43:46;;;;;;;6.00;2.75;;;;;;;4.65;100.00;101739.56;5986882;29;20134;-93
2022/01/22 02:46:50;;;;;;;3.45;2.47;;;;;;;4.66;100.00;101748.91;5986284;29;20050;-94
2022/01/22 02:50:06;;;;;;;4.15;2.28;;;;;;;4.68;100.00;101754.81;5990254;29;20049;-93
2022/01/22 02:53:12;;;;;;;6.07;2.90;;;;;;;4.70;100.00;101765.88;5982969;29;20051;-93
2022/01/22 02:56:16;;;;;;;5.00;2.70;;;;;;;4.70;100.00;101759.00;5976752;29;20058;-94
2022/01/22 02:59:34;;;;;;;5.20;2.78;;;;;;;4.72;100.00;101764.94;5987306;29;20059;-93
2022/01/22 03:02:45;;;;;;;5.30;2.50;;;;;;;4.74;100.00;101762.28;5985912;29;20053;-93
2022/01/22 03:05:48;;;;;;;3.78;2.63;;;;;;;4.74;100.00;101770.84;5995402;29;20042;-94
2022/01/22 03:08:53;;;;;;;5.35;2.70;;;;;;;4.75;100.00;101756.28;6239050;24;20679;-93
2022/01/22 03:12:51;;;;;;;3.58;2.17;;;;;;;4.74;100.00;101764.84;5998296;29;20053;-93
2022/01/22 03:16:09;;;;;;;3.83;2.58;;;;;;;4.76;100.00;101768.22;5981167;29;20053;-94
2022/01/22 03:19:18;;;;;;;3.35;2.10;;;;;;;4.75;100.00;101769.94;5980733;29;20054;-94
2022/01/22 03:22:43;;;;;;;4.72;2.33;;;;;;;4.76;100.00;101765.66;5989552;29;20051;-94
2022/01/22 03:29:19;;;;;;;4.25;2.58;;;;;;;4.80;100.00;101774.94;5968287;29;20493;-93
2022/01/22 03:32:25;;;;;;;4.75;2.80;;;;;;;4.81;100.00;101789.41;5974199;29;20074;-93
2022/01/22 03:35:34;;;;;;;4.63;2.72;;;;;;;4.84;100.00;101793.59;5965934;29;20043;-93
2022/01/22 03:38:37;;;;;;;6.30;2.63;;;;;;;4.79;100.00;101782.66;5957174;29;20046;-94
2022/01/22 03:41:45;;;;;;;6.00;3.05;;;;;;;4.83;100.00;101800.47;5986966;29;20072;-94
2022/01/22 03:44:49;;;;;;;4.45;2.95;;;;;;;4.88;100.00;101798.56;5948382;29;20054;-94
2022/01/22 03:47:52;;;;;;;5.53;2.50;;;;;;;4.89;100.00;101794.28;5961512;29;20058;-94
2022/01/22 03:50:57;;;;;;;4.10;2.50;;;;;;;4.85;100.00;101803.00;5974646;29;20439;-94
2022/01/22 03:54:00;;;;;;;6.65;2.42;;;;;;;4.90;100.00;101812.19;5954630;29;20141;-93
2022/01/22 03:57:03;;;;;;;5.22;2.83;;;;;;;4.93;100.00;101795.84;5984231;29;20058;-93
2022/01/22 04:00:17;;;;;;;3.83;2.33;;;;;;;4.96;100.00;101809.41;5958899;29;20509;-92
2022/01/22 04:03:32;;;;;;;5.35;2.83;;;;;;;4.96;100.00;101800.88;5972545;29;20062;-93
2022/01/22 04:09:42;;;;;;;4.68;2.63;;;;;;;4.97;100.00;101792.31;5988337;29;20051;-94
2022/01/22 04:16:07;;;;;;;4.10;2.47;;;;;;;4.98;100.00;101788.84;5964364;29;20061;-93
2022/01/22 04:24:50;;;;;;;5.10;3.10;;;;;;;5.00;100.00;101797.31;5965318;29;20170;-93
2022/01/22 04:26:12;;;;;;;5.75;2.88;;;;;;;4.98;100.00;101804.22;5969901;29;20047;-93
2022/01/22 04:29:15;;;;;;;5.50;3.15;;;;;;;5.01;100.00;101804.09;5962475;29;20047;-94
2022/01/22 04:32:26;;;;;;;7.15;3.08;;;;;;;5.04;100.00;101810.88;5955161;29;20047;-94
2022/01/22 04:35:28;;;;;;;7.43;3.88;;;;;;;5.03;100.00;101809.19;5979937;29;20055;-94
2022/01/22 04:39:14;;;;;;;5.30;2.65;;;;;;;5.01;100.00;101816.94;5957518;29;20577;-93
2022/01/22 04:42:44;;;;;;;9.00;3.63;;;;;;;4.96;100.00;101814.53;5970019;29;20057;-93
2022/01/22 04:45:54;;;;;;;9.75;3.88;;;;;;;5.02;100.00;101810.94;5956633;29;20060;-93
2022/01/22 04:52:31;;;;;;;7.60;3.88;;;;;;;5.02;100.00;101813.50;5951847;29;20051;-93
2022/01/22 04:52:42;;;;;;;6.97;3.78;;;;;;;5.02;100.00;101804.94;5963673;29;20051;-93
2022/01/22 04:55:50;;;;;;;7.43;3.47;;;;;;;4.96;100.00;101813.69;5975250;29;20115;-93
2022/01/22 04:58:52;;;;;;;6.70;3.50;;;;;;;4.98;100.00;101814.50;5946040;29;20687;-94
2022/01/22 05:01:55;;;;;;;6.28;3.60;;;;;;;4.88;100.00;101824.22;5942085;29;20055;-94
2022/01/22 05:05:11;;;;;;;6.63;3.15;;;;;;;4.92;100.00;101830.09;5960084;29;20051;-94
2022/01/22 05:08:32;;;;;;;6.20;3.28;;;;;;;4.97;100.00;101833.34;5957840;29;20046;-94
2022/01/22 05:11:40;;;;;;;6.22;3.33;;;;;;;4.92;100.00;101830.09;5973424;29;20585;-94
2022/01/22 05:14:43;;;;;;;6.93;3.75;;;;;;;4.99;100.00;101831.56;5952328;29;20067;-93
2022/01/22 05:18:01;;;;;;;6.97;3.70;;;;;;;5.02;100.00;101835.72;5960729;29;20124;-93
2022/01/22 05:21:09;;;;;;;5.63;2.88;;;;;;;5.09;100.00;101839.78;5957194;29;20421;-92
2022/01/22 05:24:17;;;;;;;4.72;2.47;;;;;;;5.13;100.00;101846.47;5957890;29;20057;-93
2022/01/22 05:38:27;;;;;;;7.43;3.42;;;;;;;5.12;100.00;101839.69;5957226;29;20058;-92
2022/01/22 05:41:30;;;;;;;9.45;3.33;;;;;;;5.17;100.00;101842.94;5939031;29;20051;-93
2022/01/22 05:44:33;;;;;;;6.38;3.08;;;;;;;5.13;100.00;101838.78;5950941;29;20536;-93
2022/01/22 05:47:36;;;;;;;6.65;3.33;;;;;;;5.10;100.00;101851.72;5960795;29;20843;-93
2022/01/22 06:00:31;;;;;;;7.15;3.50;;;;;;;5.20;100.00;101867.66;5955301;29;20062;-92
2022/01/22 06:03:47;;;;;;;6.15;2.80;;;;;;;5.19;100.00;101864.22;5951296;29;20058;-93
2022/01/22 06:06:49;;;;;;;5.97;3.05;;;;;;;5.19;100.00;101869.34;5946251;29;20047;-93
2022/01/22 06:10:03;;;;;;;7.88;3.42;;;;;;;5.25;100.00;101879.41;5941791;29;20058;-93
2022/01/22 06:13:14;;;;;;;5.40;3.08;;;;;;;5.24;100.00;101879.47;5965386;29;20138;-92
2022/01/22 06:16:19;;;;;;;9.85;3.88;;;;;;;5.26;100.00;101890.53;5951570;29;20089;-93
2022/01/22 06:20:00;;;;;;;4.90;3.05;;;;;;;5.26;100.00;101896.50;5889344;30;20080;-92
2022/01/22 06:23:04;;;;;;;7.97;3.47;;;;;;;5.27;100.00;101898.19;5888300;30;20131;-92
2022/01/22 06:26:07;;;;;;;4.38;2.67;;;;;;;5.27;100.00;101913.59;5944316;29;20054;-93
2022/01/22 06:29:09;;;;;;;5.32;2.33;;;;;;;5.23;100.00;101912.00;5954773;29;20051;-93
2022/01/22 06:32:12;;;;;;;2.78;1.85;;;;;;;5.23;100.00;101912.00;5954453;29;20505;-93
2022/01/22 06:35:16;;;;;;;5.68;2.50;;;;;;;5.26;100.00;101908.50;5936333;29;20987;-93
2022/01/22 06:38:19;;;;;;;3.90;1.83;;;;;;;5.25;100.00;101917.94;5957244;29;20094;-93
2022/01/22 06:42:00;;;;;;;4.30;2.25;;;;;;;5.25;100.00;101924.78;5950012;29;20076;-92
2022/01/22 06:45:23;;;;;;;7.70;2.70;;;;;;;5.23;100.00;101922.28;5954687;29;20062;-92
2022/01/22 06:48:34;;;;;;;6.35;3.15;;;;;;;5.23;100.00;101914.56;5950175;29;20505;-92
2022/01/22 06:51:59;;;;;;;6.25;4.20;;;;;;;5.19;100.00;101925.81;5948416;29;20642;-92
2022/01/22 06:55:17;;;;;;;7.80;4.03;;;;;;;5.27;100.00;101939.25;5962054;29;20062;-92
2022/01/22 06:58:19;;;;;;;8.43;4.45;;;;;;;5.25;100.00;101933.34;5941788;29;20055;-93
2022/01/22 07:01:35;;;;;;;7.38;4.78;;;;;;;5.25;100.00;101935.06;5960126;29;20066;-92
2022/01/22 07:04:42;;;;;;;8.18;4.05;;;;;;;5.23;100.00;101941.97;5951514;29;20433;-92
2022/01/22 07:08:08;;;;;;;7.35;3.97;;;;;;;5.20;100.00;101950.63;5958355;29;20061;-93
2022/01/22 07:11:14;;;;;;;11.40;4.82;;;;;;;5.13;100.00;101946.56;5963173;29;20066;-93
2022/01/22 07:14:20;;;;;;;9.43;5.30;;;;;;;5.20;100.00;101948.06;5946997;29;20050;-93
2022/01/22 07:17:24;;;;;;;9.13;4.68;;;;;;;5.18;100.00;101960.09;5962041;29;20533;-93
2022/01/22 07:20:34;;;;;;;10.48;5.25;;;;;;;5.15;100.00;101962.78;5943273;29;20626;-93
2022/01/22 07:26:42;;;;;;;10.43;4.93;;;;;;;5.17;100.00;101950.72;5950599;29;20488;-93
2022/01/22 07:29:53;;;;;;;10.43;4.65;;;;;;;5.18;100.00;101960.09;5956914;29;20051;-93
2022/01/22 07:32:55;;;;;;;6.78;3.83;;;;;;;5.13;100.00;101962.81;5961548;29;20039;-93
2022/01/22 07:35:57;;;;;;;7.50;4.05;;;;;;;5.17;100.00;101974.66;5958359;29;20653;-93
2022/01/22 07:39:00;;;;;;;10.27;4.28;;;;;;;5.14;100.00;101977.34;5958353;29;20070;-94
2022/01/22 07:42:04;;;;;;;10.95;4.50;;;;;;;5.12;100.00;101968.00;5953898;29;20050;-94
2022/01/22 07:45:25;;;;;;;8.60;3.85;;;;;;;5.09;100.00;101965.53;5980479;29;20059;-94
2022/01/22 07:48:36;;;;;;;7.50;3.30;;;;;;;5.07;100.00;101964.72;5964506;29;20071;-93
2022/01/22 07:51:44;;;;;;;7.80;3.40;;;;;;;5.01;100.00;101967.50;5978207;29;20104;-94
2022/01/22 07:54:46;;;;;;;6.90;3.72;;;;;;;5.08;100.00;101969.00;5955910;29;20425;-94
2022/01/22 07:57:49;;;;;;;10.45;3.83;;;;;;;5.12;100.00;101965.44;5956822;29;20063;-94
2022/01/22 08:00:56;;;;;;;8.60;3.88;;;;;;;5.09;100.00;101970.66;5960803;29;20339;-94
2022/01/22 08:04:05;;;;;;;10.35;3.88;;;;;;;5.12;100.00;101979.09;5975561;29;20518;-95
2022/01/22 08:07:29;;;;;;;6.78;3.53;;;;;;;5.12;100.00;101981.69;5981846;29;20047;-94
2022/01/22 08:10:52;;;;;;;7.03;3.67;;;;;;;5.23;100.00;101975.34;5981963;29;20055;-94
2022/01/22 08:13:54;;;;;;;6.70;3.10;;;;;;;5.17;100.00;101982.38;5998700;29;20039;-94
2022/01/22 08:16:58;;;;;;;7.95;3.70;;;;;;;5.12;100.00;101980.84;5984606;29;20053;-95
2022/01/22 08:20:12;;;;;;;7.50;3.80;;;;;;;5.20;100.00;101978.84;5965785;29;20051;-93
2022/01/22 08:23:35;;;;;;;8.75;3.75;;;;;;;5.23;100.00;101980.47;5984694;29;20055;-94
2022/01/22 08:27:33;;;;;;;9.07;3.97;;;;;;;5.18;100.00;101978.88;5974784;29;20051;-95
2022/01/22 08:30:39;;;;;;;8.90;3.75;;;;;;;5.22;100.00;101987.34;5985278;29;20054;-94
2022/01/22 08:37:03;;;;;;;7.20;3.13;;;;;;;5.23;100.00;101991.59;5988540;29;20039;-94
2022/01/22 08:40:08;;;;;;;6.80;2.80;;;;;;;5.34;100.00;101989.50;5987348;29;20062;-94
2022/01/22 08:43:10;;;;;;;7.75;3.58;;;;;;;5.37;100.00;101988.56;5986960;29;20143;-94
2022/01/22 08:46:14;;;;;;;6.05;3.28;;;;;;;5.37;100.00;101991.13;5970908;29;20059;-95
2022/01/22 08:49:16;;;;;;;9.98;3.28;;;;;;;5.35;100.00;102000.63;5969499;29;20746;-94
2022/01/22 08:52:38;;;;;;;5.32;3.38;;;;;;;5.34;100.00;101997.22;5979971;29;20057;-94
2022/01/22 08:55:42;;;;;;;4.88;2.95;;;;;;;5.38;100.00;102003.06;5967313;29;20602;-93
2022/01/22 08:58:46;;;;;;;7.20;3.63;;;;;;;5.37;100.00;102002.25;5967488;29;20498;-93
2022/01/22 09:01:55;;;;;;;6.27;3.37;;;;;;;5.37;100.00;101999.66;5960082;29;20039;-94
2022/01/22 09:05:35;;;;;;;7.45;3.25;;;;;;;5.37;100.00;102009.94;5956687;29;20576;-93
2022/01/22 09:09:07;;;;;;;8.60;3.20;;;;;;;5.36;100.00;102015.94;5960850;29;20539;-94
2022/01/22 09:12:42;;;;;;;6.88;3.40;;;;;;;5.36;100.00;102018.50;5949114;29;20517;-94
2022/01/22 09:16:07;;;;;;;6.93;2.90;;;;;;;5.45;100.00;102022.53;5963693;29;20044;-94
2022/01/22 09:19:11;;;;;;;10.00;3.60;;;;;;;5.44;100.00;102030.25;5968570;29;20141;-94
2022/01/22 09:22:20;;;;;;;8.30;3.90;;;;;;;5.49;100.00;102029.25;5987034;29;20063;-94
2022/01/22 09:25:25;;;;;;;6.00;3.65;;;;;;;5.49;100.00;102034.38;5970460;29;20524;-94
2022/01/22 09:28:30;;;;;;;8.48;3.17;;;;;;;5.48;100.00;102027.53;5972489;29;20658;-94
2022/01/22 09:31:34;;;;;;;12.32;3.50;;;;;;;5.48;100.00;102031.84;5971475;29;20023;-95
2022/01/22 09:34:40;;;;;;;5.95;2.90;;;;;;;5.46;100.00;102037.03;5979242;29;20316;-94
2022/01/22 09:38:00;;;;;;;4.55;3.13;;;;;;;5.51;100.00;102040.28;5975462;29;20058;-95
2022/01/22 09:41:23;;;;;;;7.65;3.22;;;;;;;5.52;100.00;102043.72;5968920;29;20059;-94
2022/01/22 09:44:44;;;;;;;4.40;3.00;;;;;;;5.55;100.00;102056.44;5959789;29;20043;-94
2022/01/22 09:48:00;;;;;;;6.40;3.00;;;;;;;5.58;100.00;102044.31;5939581;29;20059;-94
2022/01/22 09:51:08;;;;;;;7.55;3.47;;;;;;;5.66;100.00;102054.34;5950424;29;20074;-94
2022/01/22 09:54:17;;;;;;;5.55;2.90;;;;;;;5.68;100.00;102052.56;5958123;29;20476;-94
2022/01/22 09:57:50;;;;;;;4.93;2.85;;;;;;;5.75;100.00;102055.78;5945310;29;20047;-94
2022/01/22 10:01:29;;;;;;;3.40;2.42;;;;;;;5.81;100.00;102055.56;5960253;29;20047;-94
2022/01/22 10:04:40;;;;;;;4.47;2.55;;;;;;;5.88;100.00;102057.03;5973232;29;20043;-94
2022/01/22 10:08:31;;;;;;;5.47;2.40;;;;;;;5.92;100.00;102070.63;5955729;29;20047;-94
2022/01/22 10:12:16;;;;;;;6.13;2.95;;;;;;;5.94;100.00;102076.59;5954675;29;20673;-93
2022/01/22 10:15:39;;;;;;;6.57;2.85;;;;;;;5.94;100.00;102069.72;5948884;29;20046;-94
2022/01/22 10:19:23;;;;;;;6.53;3.03;;;;;;;6.02;100.00;102077.97;5956710;29;20046;-93
2022/01/22 10:22:25;;;;;;;3.13;2.30;;;;;;;6.06;100.00;102059.88;5951356;29;20384;-93
2022/01/22 10:25:47;;;;;;;3.88;2.60;;;;;;;6.12;100.00;102068.22;5958153;29;20035;-93
2022/01/22 10:28:55;;;;;;;3.92;1.92;;;;;;;6.19;100.00;102064.53;5960366;29;20131;-93
2022/01/22 10:32:02;;;;;;;3.60;1.90;;;;;;;6.27;100.00;102058.28;5956476;29;20046;-93
2022/01/22 10:35:28;;;;;;;2.80;1.40;;;;;;;6.20;100.00;102063.63;5951842;29;20054;-93
2022/01/22 10:39:22;;;;;;;3.15;1.60;;;;;;;6.24;100.00;102051.53;5958714;29;20141;-93
2022/01/22 10:42:26;;;;;;;2.67;1.75;;;;;;;6.24;100.00;102052.34;5957298;29;20080;-93
2022/01/22 10:45:31;;;;;;;4.07;1.85;;;;;;;6.27;100.00;102060.84;5955309;29;20610;-93
2022/01/22 10:48:36;;;;;;;2.20;1.50;;;;;;;6.25;100.00;102066.88;5955451;29;20047;-93
2022/01/22 10:51:59;;;;;;;2.78;1.80;;;;;;;6.14;100.00;102065.59;5957814;29;20145;-92
2022/01/22 10:55:02;;;;;;;4.15;1.77;;;;;;;6.04;100.00;102059.94;5969264;29;20051;-92
2022/01/22 10:58:09;;;;;;;4.05;1.95;;;;;;;5.96;100.00;102067.06;5954732;29;20054;-92
2022/01/22 11:01:11;;;;;;;4.28;2.30;;;;;;;5.95;100.00;102055.13;5969776;29;20144;-92
2022/01/22 11:04:18;;;;;;;4.45;2.38;;;;;;;5.84;100.00;102063.19;5953639;29;20050;-92
2022/01/22 11:07:21;;;;;;;2.88;2.28;;;;;;;5.79;100.00;102068.47;5954325;29;20577;-92
2022/01/22 11:10:33;;;;;;;4.78;2.22;;;;;;;5.73;100.00;102083.25;5957831;29;20051;-92
2022/01/22 11:13:36;;;;;;;3.70;2.42;;;;;;;5.71;100.00;102080.72;5956594;29;20046;-93
2022/01/22 11:16:40;;;;;;;2.78;2.15;;;;;;;5.77;100.00;102077.13;5957081;29;20104;-93
2022/01/22 11:19:51;;;;;;;2.90;1.88;;;;;;;5.79;100.00;102080.47;5955068;29;20049;-92
2022/01/22 11:22:53;;;;;;;2.90;1.98;;;;;;;5.75;100.00;102077.16;5957104;29;20043;-92
2022/01/22 11:25:55;;;;;;;3.15;2.13;;;;;;;5.78;100.00;102083.94;5957277;29;20053;-93
2022/01/22 11:28:58;;;;;;;2.47;1.63;;;;;;;5.73;100.00;102075.53;5956972;29;20054;-93
2022/01/22 11:32:05;;;;;;;3.53;1.92;;;;;;;5.78;100.00;102076.22;5953482;29;20050;-92
2022/01/22 11:35:09;;;;;;;3.03;1.92;;;;;;;5.67;100.00;102086.03;5954351;29;20067;-93
2022/01/22 11:38:18;;;;;;;3.00;1.55;;;;;;;5.75;100.00;102082.31;5957657;29;20094;-93
2022/01/22 11:41:22;;;;;;;3.65;2.08;;;;;;;5.79;100.00;102075.34;5956308;29;20408;-93
2022/01/22 11:44:39;;;;;;;3.88;1.77;;;;;;;5.91;100.00;102068.91;5955144;29;20043;-92
2022/01/22 11:48:20;;;;;;;2.75;1.70;;;;;;;5.96;100.00;102087.63;5955675;29;20121;-92
2022/01/22 11:51:26;;;;;;;2.70;1.90;;;;;;;5.96;100.00;102078.22;5954825;29;20405;-93
2022/01/22 11:54:49;;;;;;;4.07;1.70;;;;;;;6.07;100.00;102077.81;5956910;29;20163;-93
2022/01/22 11:58:06;;;;;;;3.95;2.08;;;;;;;6.10;100.00;102084.59;5956571;29;20179;-92
2022/01/22 12:01:08;;;;;;;3.08;2.00;;;;;;;5.97;100.00;102079.03;5967760;29;20122;-92
2022/01/22 12:04:15;;;;;;;3.83;2.03;;;;;;;6.05;100.00;102079.59;5956981;29;20053;-92
2022/01/22 12:07:20;;;;;;;2.97;1.90;;;;;;;6.15;100.00;102087.84;5957471;29;20110;-93
2022/01/22 12:10:37;;;;;;;3.35;1.88;;;;;;;6.31;100.00;102088.13;5957136;29;20564;-93
2022/01/22 12:17:13;;;;;;;5.43;2.28;;;;;;;6.47;100.00;102102.94;5954865;29;20047;-93
2022/01/22 12:23:39;;;;;;;3.40;2.25;;;;;;;6.47;100.00;102102.94;5952710;29;20085;-93
2022/01/22 12:26:45;;;;;;;3.47;1.88;;;;;;;6.44;100.00;102120.22;5958249;29;20049;-93
2022/01/22 12:29:59;;;;;;;2.55;1.50;;;;;;;6.39;100.00;102102.38;5953387;29;20130;-93
2022/01/22 12:33:05;;;;;;;3.13;1.90;;;;;;;6.38;100.00;102100.69;5954691;29;20411;-93
2022/01/22 12:36:17;;;;;;;2.15;1.85;;;;;;;6.49;100.00;102104.63;5952464;29;20053;-92
2022/01/22 12:39:28;;;;;;;1.63;1.33;;;;;;;6.50;100.00;102104.56;5955347;29;20497;-92
2022/01/22 12:43:03;;;;;;;2.60;2.00;;;;;;;6.60;100.00;102105.06;5958177;29;20067;-93
2022/01/22 12:46:06;;;;;;;4.07;1.70;;;;;;;6.58;100.00;102101.72;5961093;29;20050;-92
2022/01/22 12:49:08;;;;;;;3.83;2.00;;;;;;;6.55;100.00;102115.53;5956476;29;20062;-92
2022/01/22 12:52:13;;;;;;;3.08;2.05;;;;;;;6.61;100.00;102097.31;5946836;29;20043;-92
2022/01/22 12:55:37;;;;;;;3.22;1.90;;;;;;;6.77;100.00;102094.16;5951247;29;20043;-92
2022/01/22 12:58:41;;;;;;;2.40;1.48;;;;;;;6.81;100.00;102095.72;5955480;29;20059;-93
2022/01/22 13:01:51;;;;;;;2.78;1.90;;;;;;;6.84;100.00;102095.59;5953604;29;20050;-92
2022/01/22 13:04:58;;;;;;;4.40;2.20;;;;;;;6.88;100.00;102092.88;5958815;29;20050;-93
2022/01/22 13:08:42;;;;;;;3.60;2.03;;;;;;;6.65;100.00;102088.56;5918340;29;20106;-93
2022/01/22 13:12:00;;;;;;;4.38;1.88;;;;;;;6.42;100.00;102098.88;5960896;29;20058;-93
2022/01/22 13:15:04;;;;;;;2.88;2.10;;;;;;;6.35;100.00;102092.25;5956415;29;20047;-93
2022/01/22 13:18:07;;;;;;;3.55;2.28;;;;;;;6.31;100.00;102098.41;5953637;29;20055;-93
2022/01/22 13:21:10;;;;;;;2.97;2.10;;;;;;;6.19;100.00;102092.00;5952335;29;20151;-92
2022/01/22 13:24:27;;;;;;;5.03;2.70;;;;;;;6.02;100.00;102097.72;5946557;29;20066;-92
2022/01/22 13:27:31;;;;;;;4.07;2.10;;;;;;;5.90;100.00;102096.34;5953539;29;20153;-93
2022/01/22 13:30:39;;;;;;;4.22;2.65;;;;;;;5.87;100.00;102090.50;5952955;29;20058;-93
2022/01/22 13:34:15;;;;;;;3.88;2.13;;;;;;;5.88;100.00;102092.16;5959580;29;20070;-93
2022/01/22 13:37:51;;;;;;;6.65;3.38;;;;;;;5.81;100.00;102094.97;5948137;29;20051;-93
2022/01/22 13:50:30;;;;;;;2.83;2.08;;;;;;;5.87;100.00;102099.03;5952785;29;20150;-94
2022/01/22 13:53:36;;;;;;;5.20;2.75;;;;;;;5.84;100.00;102088.88;5957497;29;20046;-94
2022/01/22 13:56:44;;;;;;;3.65;2.50;;;;;;;5.83;100.00;102105.16;5964559;29;20043;-94
2022/01/22 14:03:44;;;;;;;2.63;1.85;;;;;;;5.78;100.00;102089.06;6042067;24;20058;-94
2022/01/22 14:06:48;;;;;;;3.40;1.98;;;;;;;5.67;100.00;102099.72;6412674;24;20036;-94
2022/01/22 14:10:17;;;;;;;4.45;2.15;;;;;;;5.76;100.00;102094.28;6025996;29;20065;-94
2022/01/22 14:13:31;;;;;;;2.67;2.30;;;;;;;5.70;100.00;102101.34;6009874;29;20049;-94
2022/01/22 14:16:45;;;;;;;2.08;1.80;;;;;;;5.50;100.00;102102.00;6002658;29;20087;-94
2022/01/22 14:20:32;;;;;;;2.67;2.03;;;;;;;5.45;100.00;102101.31;5974631;29;20149;-93
2022/01/22 14:23:38;;;;;;;2.42;1.70;;;;;;;5.45;100.00;102101.31;5987072;29;20092;-94
2022/01/22 14:26:41;;;;;;;1.50;1.30;;;;;;;5.48;100.00;102106.31;5972273;29;20454;-93
2022/01/22 14:29:47;;;;;;;1.70;1.55;;;;;;;5.47;100.00;102120.06;5991177;29;20073;-92
2022/01/22 14:32:57;;;;;;;1.70;1.35;;;;;;;5.50;100.00;102117.41;6002895;29;20065;-94
2022/01/22 14:36:22;;;;;;;2.55;1.38;;;;;;;5.42;100.00;102112.50;6012293;29;20045;-94
2022/01/22 14:47:05;;;;;;;1.48;1.10;;;;;;;5.33;100.00;102118.75;6018889;29;20042;-94
2022/01/22 14:50:21;;;;;;;2.10;1.90;;;;;;;5.24;100.00;102102.81;6069173;24;20046;-94
2022/01/22 14:53:37;;;;;;;2.38;1.60;;;;;;;5.22;100.00;102113.13;6013186;29;20050;-94
2022/01/22 14:56:46;;;;;;;2.47;1.95;;;;;;;5.23;100.00;102109.66;5990865;29;20107;-94
2022/01/22 14:59:57;;;;;;;2.72;1.80;;;;;;;5.16;100.00;102113.31;6006479;29;20051;-95
2022/01/22 15:03:11;;;;;;;2.20;1.90;;;;;;;5.18;100.00;102114.09;6012831;29;20047;-94
2022/01/22 15:06:24;;;;;;;2.17;1.83;;;;;;;5.15;100.00;102114.22;6015081;29;20131;-94
2022/01/22 15:09:43;;;;;;;3.40;1.90;;;;;;;5.11;100.00;102120.31;6003992;29;20042;-95
2022/01/22 15:12:50;;;;;;;3.83;1.98;;;;;;;5.08;100.00;102126.38;6005871;29;20156;-94
2022/01/22 15:16:05;;;;;;;5.22;2.30;;;;;;;5.08;100.00;102134.06;6011586;29;20049;-94
2022/01/22 15:19:16;;;;;;;3.60;2.40;;;;;;;5.08;100.00;102131.50;6018133;29;20043;-95
2022/01/22 15:22:19;;;;;;;4.63;1.90;;;;;;;4.99;100.00;102123.25;6015266;29;20057;-95
2022/01/22 15:25:21;;;;;;;3.58;1.90;;;;;;;5.00;100.00;102136.03;6000396;29;20662;-95
2022/01/22 15:28:31;;;;;;;3.00;2.45;;;;;;;5.09;100.00;102140.91;6010410;29;20361;-95
2022/01/22 15:31:37;;;;;;;3.10;2.40;;;;;;;5.05;100.00;102130.78;5987514;29;20062;-95
2022/01/22 15:35:08;;;;;;;5.10;1.90;;;;;;;5.02;100.00;102136.84;5996250;29;20055;-94
2022/01/22 15:38:10;;;;;;;3.15;2.22;;;;;;;5.00;100.00;102136.03;5995055;29;20057;-93
2022/01/22 15:41:12;;;;;;;2.75;1.95;;;;;;;5.02;100.00;102133.41;5983738;29;20054;-93
2022/01/22 15:44:15;;;;;;;3.47;1.65;;;;;;;4.97;100.00;102131.00;5950217;29;20084;-93
2022/01/22 15:47:17;;;;;;;3.53;2.53;;;;;;;4.90;100.00;102125.22;5979985;29;20054;-94
2022/01/22 15:50:21;;;;;;;3.35;1.92;;;;;;;4.80;100.00;102130.66;5991674;29;20823;-93
2022/01/22 15:53:43;;;;;;;3.75;2.00;;;;;;;4.74;100.00;102135.09;5991815;29;20130;-94
2022/01/22 15:56:47;;;;;;;2.45;2.10;;;;;;;4.79;100.00;102132.34;5989934;29;20180;-94
2022/01/22 15:59:51;;;;;;;2.90;1.92;;;;;;;4.78;100.00;102140.13;5992949;29;20130;-93
2022/01/22 16:02:53;;;;;;;3.45;2.60;;;;;;;4.92;100.00;102136.28;5991612;29;20051;-94
2022/01/22 16:06:00;;;;;;;3.67;2.53;;;;;;;4.94;100.00;102139.63;5985437;29;20115;-94
2022/01/22 16:09:09;;;;;;;3.92;2.25;;;;;;;5.03;100.00;102130.81;5987826;29;20042;-94
2022/01/22 16:12:33;;;;;;;3.10;2.17;;;;;;;4.99;100.00;102152.31;5991214;29;20836;-93
2022/01/22 16:15:35;;;;;;;2.75;1.95;;;;;;;5.02;100.00;102139.41;5984345;29;20046;-93
2022/01/22 16:18:37;;;;;;;3.25;1.77;;;;;;;5.05;100.00;102154.72;5979211;29;20050;-93
2022/01/22 16:21:41;;;;;;;2.92;2.10;;;;;;;5.01;100.00;102154.84;5983913;29;20077;-92
2022/01/22 16:24:44;;;;;;;2.45;2.05;;;;;;;4.85;100.00;102160.41;5989098;29;20062;-93
2022/01/22 16:27:46;;;;;;;5.57;2.75;;;;;;;4.88;100.00;102162.88;5986631;29;20042;-94
2022/01/22 16:30:50;;;;;;;4.55;2.83;;;;;;;4.89;100.00;102162.00;5991143;29;20421;-93
2022/01/22 16:33:52;;;;;;;3.90;2.83;;;;;;;4.81;100.00;102160.53;5991869;29;20513;-93